sensor_id;sensor_type;location;lat;lon;timestamp;temperature;humidity
64880;HTU21D;51374;45.124;36.712;2022-07-23T00:00:33;20.51;74.96
64880;HTU21D;51374;45.124;36.712;2022-07-23T00:03:02;20.47;75.02
64880;HTU21D;51374;45.124;36.712;2022-07-23T00:05:28;20.42;75.10
64880;HTU21D;51374;45.124;36.712;2022-07-23T00:07:54;20.40;75.14
64880;HTU21D;51374;45.124;36.712;2022-07-23T00:10:20;20.36;75.14
64880;HTU21D;51374;45.124;36.712;2022-07-23T00:12:46;20.36;75.15
64880;HTU21D;51374;45.124;36.712;2022-07-23T00:15:12;20.37;75.18
64880;HTU21D;51374;45.124;36.712;2022-07-23T00:17:38;20.37;75.12
64880;HTU21D;51374;45.124;36.712;2022-07-23T00:20:05;20.40;75.09
64880;HTU21D;51374;45.124;36.712;2022-07-23T00:22:31;20.41;75.08
64880;HTU21D;51374;45.124;36.712;2022-07-23T00:24:57;20.41;75.09
64880;HTU21D;51374;45.124;36.712;2022-07-23T00:27:23;20.43;75.05
64880;HTU21D;51374;45.124;36.712;2022-07-23T00:29:49;20.42;75.09
64880;HTU21D;51374;45.124;36.712;2022-07-23T00:32:15;20.40;75.07
64880;HTU21D;51374;45.124;36.712;2022-07-23T00:34:41;20.41;75.07
64880;HTU21D;51374;45.124;36.712;2022-07-23T00:37:07;20.37;75.08
64880;HTU21D;51374;45.124;36.712;2022-07-23T00:39:33;20.35;75.13
64880;HTU21D;51374;45.124;36.712;2022-07-23T00:41:59;20.34;75.15
64880;HTU21D;51374;45.124;36.712;2022-07-23T00:44:27;20.32;75.21
64880;HTU21D;51374;45.124;36.712;2022-07-23T00:46:56;20.31;75.20
64880;HTU21D;51374;45.124;36.712;2022-07-23T00:49:25;20.29;75.25
64880;HTU21D;51374;45.124;36.712;2022-07-23T00:51:51;20.27;75.26
64880;HTU21D;51374;45.124;36.712;2022-07-23T00:54:19;20.27;75.27
64880;HTU21D;51374;45.124;36.712;2022-07-23T00:56:46;20.28;75.27
64880;HTU21D;51374;45.124;36.712;2022-07-23T00:59:13;20.28;75.28
64880;HTU21D;51374;45.124;36.712;2022-07-23T01:01:40;20.30;75.30
64880;HTU21D;51374;45.124;36.712;2022-07-23T01:04:06;20.30;75.31
64880;HTU21D;51374;45.124;36.712;2022-07-23T01:06:37;20.29;75.34
64880;HTU21D;51374;45.124;36.712;2022-07-23T01:09:05;20.30;75.38
64880;HTU21D;51374;45.124;36.712;2022-07-23T01:11:33;20.30;75.34
64880;HTU21D;51374;45.124;36.712;2022-07-23T01:14:07;20.29;75.36
64880;HTU21D;51374;45.124;36.712;2022-07-23T01:16:33;20.29;75.35
64880;HTU21D;51374;45.124;36.712;2022-07-23T01:18:58;20.30;75.39
64880;HTU21D;51374;45.124;36.712;2022-07-23T01:21:25;20.29;75.34
64880;HTU21D;51374;45.124;36.712;2022-07-23T01:23:51;20.29;75.38
64880;HTU21D;51374;45.124;36.712;2022-07-23T01:26:18;20.29;75.38
64880;HTU21D;51374;45.124;36.712;2022-07-23T01:28:44;20.28;75.42
64880;HTU21D;51374;45.124;36.712;2022-07-23T01:31:10;20.27;75.43
64880;HTU21D;51374;45.124;36.712;2022-07-23T01:33:36;20.25;75.45
64880;HTU21D;51374;45.124;36.712;2022-07-23T01:36:02;20.24;75.47
64880;HTU21D;51374;45.124;36.712;2022-07-23T01:38:28;20.22;75.50
64880;HTU21D;51374;45.124;36.712;2022-07-23T01:40:54;20.22;75.49
64880;HTU21D;51374;45.124;36.712;2022-07-23T01:43:21;20.19;75.54
64880;HTU21D;51374;45.124;36.712;2022-07-23T01:45:47;20.20;75.54
64880;HTU21D;51374;45.124;36.712;2022-07-23T01:48:14;20.19;75.59
64880;HTU21D;51374;45.124;36.712;2022-07-23T01:50:52;20.18;75.63
64880;HTU21D;51374;45.124;36.712;2022-07-23T01:53:32;20.14;75.64
64880;HTU21D;51374;45.124;36.712;2022-07-23T01:55:59;20.14;75.68
64880;HTU21D;51374;45.124;36.712;2022-07-23T01:58:26;20.11;75.70
64880;HTU21D;51374;45.124;36.712;2022-07-23T02:00:53;20.11;75.76
64880;HTU21D;51374;45.124;36.712;2022-07-23T02:03:19;20.10;75.76
64880;HTU21D;51374;45.124;36.712;2022-07-23T02:05:45;20.09;75.79
64880;HTU21D;51374;45.124;36.712;2022-07-23T02:08:11;20.10;75.83
64880;HTU21D;51374;45.124;36.712;2022-07-23T02:10:37;20.10;75.82
64880;HTU21D;51374;45.124;36.712;2022-07-23T02:13:04;20.10;75.86
64880;HTU21D;51374;45.124;36.712;2022-07-23T02:15:30;20.12;75.84
64880;HTU21D;51374;45.124;36.712;2022-07-23T02:17:56;20.13;75.83
64880;HTU21D;51374;45.124;36.712;2022-07-23T02:20:22;20.15;75.83
64880;HTU21D;51374;45.124;36.712;2022-07-23T02:22:48;20.14;75.87
64880;HTU21D;51374;45.124;36.712;2022-07-23T02:25:15;20.17;75.85
64880;HTU21D;51374;45.124;36.712;2022-07-23T02:27:42;20.16;75.81
64880;HTU21D;51374;45.124;36.712;2022-07-23T02:30:09;20.15;75.86
64880;HTU21D;51374;45.124;36.712;2022-07-23T02:32:35;20.15;75.88
64880;HTU21D;51374;45.124;36.712;2022-07-23T02:35:03;20.15;75.88
64880;HTU21D;51374;45.124;36.712;2022-07-23T02:37:29;20.16;75.92
64880;HTU21D;51374;45.124;36.712;2022-07-23T02:39:55;20.19;75.91
64880;HTU21D;51374;45.124;36.712;2022-07-23T02:42:22;20.20;75.91
64880;HTU21D;51374;45.124;36.712;2022-07-23T02:44:50;20.25;75.99
64880;HTU21D;51374;45.124;36.712;2022-07-23T02:47:16;20.34;76.20
64880;HTU21D;51374;45.124;36.712;2022-07-23T02:49:44;20.42;76.12
64880;HTU21D;51374;45.124;36.712;2022-07-23T02:52:10;20.48;76.08
64880;HTU21D;51374;45.124;36.712;2022-07-23T02:54:37;20.54;76.04
64880;HTU21D;51374;45.124;36.712;2022-07-23T02:57:04;20.60;76.05
64880;HTU21D;51374;45.124;36.712;2022-07-23T02:59:30;20.64;75.92
64880;HTU21D;51374;45.124;36.712;2022-07-23T03:01:56;20.68;75.92
64880;HTU21D;51374;45.124;36.712;2022-07-23T03:04:22;20.70;75.92
64880;HTU21D;51374;45.124;36.712;2022-07-23T03:06:48;20.80;76.17
64880;HTU21D;51374;45.124;36.712;2022-07-23T03:09:14;20.98;76.27
64880;HTU21D;51374;45.124;36.712;2022-07-23T03:11:40;21.15;76.34
64880;HTU21D;51374;45.124;36.712;2022-07-23T03:14:07;21.29;76.20
64880;HTU21D;51374;45.124;36.712;2022-07-23T03:16:35;21.28;75.90
64880;HTU21D;51374;45.124;36.712;2022-07-23T03:19:01;21.32;76.02
64880;HTU21D;51374;45.124;36.712;2022-07-23T03:21:27;21.45;75.99
64880;HTU21D;51374;45.124;36.712;2022-07-23T03:23:53;21.58;75.81
64880;HTU21D;51374;45.124;36.712;2022-07-23T03:26:19;21.67;75.57
64880;HTU21D;51374;45.124;36.712;2022-07-23T03:28:45;21.75;75.31
64880;HTU21D;51374;45.124;36.712;2022-07-23T03:31:11;21.75;75.09
64880;HTU21D;51374;45.124;36.712;2022-07-23T03:33:38;21.76;74.89
64880;HTU21D;51374;45.124;36.712;2022-07-23T03:36:04;21.75;74.79
64880;HTU21D;51374;45.124;36.712;2022-07-23T03:38:35;21.74;74.69
64880;HTU21D;51374;45.124;36.712;2022-07-23T03:41:01;21.72;74.67
64880;HTU21D;51374;45.124;36.712;2022-07-23T03:43:27;21.74;74.60
64880;HTU21D;51374;45.124;36.712;2022-07-23T03:45:53;21.77;74.57
64880;HTU21D;51374;45.124;36.712;2022-07-23T03:48:19;21.81;74.51
64880;HTU21D;51374;45.124;36.712;2022-07-23T03:50:45;21.87;74.40
64880;HTU21D;51374;45.124;36.712;2022-07-23T03:53:11;21.89;74.34
64880;HTU21D;51374;45.124;36.712;2022-07-23T03:55:37;21.93;74.27
64880;HTU21D;51374;45.124;36.712;2022-07-23T03:58:03;21.96;74.22
64880;HTU21D;51374;45.124;36.712;2022-07-23T04:00:29;22.03;74.18
64880;HTU21D;51374;45.124;36.712;2022-07-23T04:02:55;22.07;74.10
64880;HTU21D;51374;45.124;36.712;2022-07-23T04:05:21;22.12;74.06
64880;HTU21D;51374;45.124;36.712;2022-07-23T04:07:51;22.18;74.02
64880;HTU21D;51374;45.124;36.712;2022-07-23T04:10:18;22.26;73.94
64880;HTU21D;51374;45.124;36.712;2022-07-23T04:12:44;22.33;73.90
64880;HTU21D;51374;45.124;36.712;2022-07-23T04:15:10;22.38;73.78
64880;HTU21D;51374;45.124;36.712;2022-07-23T04:17:36;22.44;73.78
64880;HTU21D;51374;45.124;36.712;2022-07-23T04:20:03;22.53;73.74
64880;HTU21D;51374;45.124;36.712;2022-07-23T04:22:35;22.61;73.61
64880;HTU21D;51374;45.124;36.712;2022-07-23T04:25:01;22.66;73.54
64880;HTU21D;51374;45.124;36.712;2022-07-23T04:27:27;22.76;73.49
64880;HTU21D;51374;45.124;36.712;2022-07-23T04:29:53;22.90;73.34
64880;HTU21D;51374;45.124;36.712;2022-07-23T04:32:19;23.01;73.15
64880;HTU21D;51374;45.124;36.712;2022-07-23T04:34:45;23.11;72.97
64880;HTU21D;51374;45.124;36.712;2022-07-23T04:37:12;23.18;72.83
64880;HTU21D;51374;45.124;36.712;2022-07-23T04:39:38;23.17;72.74
64880;HTU21D;51374;45.124;36.712;2022-07-23T04:42:04;23.21;72.72
64880;HTU21D;51374;45.124;36.712;2022-07-23T04:44:31;23.21;72.64
64880;HTU21D;51374;45.124;36.712;2022-07-23T04:46:57;23.24;72.61
64880;HTU21D;51374;45.124;36.712;2022-07-23T04:49:23;23.29;72.61
64880;HTU21D;51374;45.124;36.712;2022-07-23T04:51:49;23.32;72.35
64880;HTU21D;51374;45.124;36.712;2022-07-23T04:54:15;23.32;72.37
64880;HTU21D;51374;45.124;36.712;2022-07-23T04:56:43;23.35;72.36
64880;HTU21D;51374;45.124;36.712;2022-07-23T04:59:09;23.40;72.32
64880;HTU21D;51374;45.124;36.712;2022-07-23T05:01:35;23.40;72.14
64880;HTU21D;51374;45.124;36.712;2022-07-23T05:04:01;23.35;72.20
64880;HTU21D;51374;45.124;36.712;2022-07-23T05:06:31;23.38;72.23
64880;HTU21D;51374;45.124;36.712;2022-07-23T05:08:57;23.47;72.16
64880;HTU21D;51374;45.124;36.712;2022-07-23T05:11:23;23.55;72.02
64880;HTU21D;51374;45.124;36.712;2022-07-23T05:13:49;23.61;71.90
64880;HTU21D;51374;45.124;36.712;2022-07-23T05:16:19;23.66;71.81
64880;HTU21D;51374;45.124;36.712;2022-07-23T05:18:45;23.76;71.74
64880;HTU21D;51374;45.124;36.712;2022-07-23T05:21:11;23.86;71.48
64880;HTU21D;51374;45.124;36.712;2022-07-23T05:23:37;23.95;71.41
64880;HTU21D;51374;45.124;36.712;2022-07-23T05:26:04;24.03;71.13
64880;HTU21D;51374;45.124;36.712;2022-07-23T05:28:31;24.08;71.05
64880;HTU21D;51374;45.124;36.712;2022-07-23T05:30:57;24.10;70.91
64880;HTU21D;51374;45.124;36.712;2022-07-23T05:33:23;24.14;70.84
64880;HTU21D;51374;45.124;36.712;2022-07-23T05:35:50;24.14;70.68
64880;HTU21D;51374;45.124;36.712;2022-07-23T05:38:29;23.97;70.73
64880;HTU21D;51374;45.124;36.712;2022-07-23T05:40:58;23.79;70.90
64880;HTU21D;51374;45.124;36.712;2022-07-23T05:43:25;23.59;71.14
64880;HTU21D;51374;45.124;36.712;2022-07-23T05:45:51;23.57;71.26
64880;HTU21D;51374;45.124;36.712;2022-07-23T05:48:17;23.66;71.19
64880;HTU21D;51374;45.124;36.712;2022-07-23T05:50:56;23.80;71.01
64880;HTU21D;51374;45.124;36.712;2022-07-23T05:53:29;23.92;70.76
64880;HTU21D;51374;45.124;36.712;2022-07-23T05:56:21;23.96;70.61
64880;HTU21D;51374;45.124;36.712;2022-07-23T05:58:48;23.83;70.15
64880;HTU21D;51374;45.124;36.712;2022-07-23T06:01:16;23.76;70.39
64880;HTU21D;51374;45.124;36.712;2022-07-23T06:04:08;23.85;70.19
64880;HTU21D;51374;45.124;36.712;2022-07-23T06:06:38;23.98;69.97
64880;HTU21D;51374;45.124;36.712;2022-07-23T06:09:06;24.08;69.54
64880;HTU21D;51374;45.124;36.712;2022-07-23T06:11:32;24.12;69.10
64880;HTU21D;51374;45.124;36.712;2022-07-23T06:13:58;24.17;69.17
64880;HTU21D;51374;45.124;36.712;2022-07-23T06:16:39;24.14;68.74
64880;HTU21D;51374;45.124;36.712;2022-07-23T06:19:05;24.10;68.90
64880;HTU21D;51374;45.124;36.712;2022-07-23T06:21:31;24.10;68.75
64880;HTU21D;51374;45.124;36.712;2022-07-23T06:23:57;24.13;68.62
64880;HTU21D;51374;45.124;36.712;2022-07-23T06:26:23;24.19;68.01
64880;HTU21D;51374;45.124;36.712;2022-07-23T06:28:49;24.18;67.62
64880;HTU21D;51374;45.124;36.712;2022-07-23T06:31:15;24.15;67.27
64880;HTU21D;51374;45.124;36.712;2022-07-23T06:33:41;24.16;67.41
64880;HTU21D;51374;45.124;36.712;2022-07-23T06:36:07;24.19;66.81
64880;HTU21D;51374;45.124;36.712;2022-07-23T06:38:33;24.20;67.26
64880;HTU21D;51374;45.124;36.712;2022-07-23T06:40:59;24.26;67.08
64880;HTU21D;51374;45.124;36.712;2022-07-23T06:43:25;24.29;66.83
64880;HTU21D;51374;45.124;36.712;2022-07-23T06:45:54;24.34;66.95
64880;HTU21D;51374;45.124;36.712;2022-07-23T06:48:20;24.44;66.97
64880;HTU21D;51374;45.124;36.712;2022-07-23T06:50:48;24.55;66.81
64880;HTU21D;51374;45.124;36.712;2022-07-23T06:53:14;24.58;66.51
64880;HTU21D;51374;45.124;36.712;2022-07-23T06:55:41;24.57;65.91
64880;HTU21D;51374;45.124;36.712;2022-07-23T06:58:07;24.61;65.72
64880;HTU21D;51374;45.124;36.712;2022-07-23T07:00:34;24.69;66.01
64880;HTU21D;51374;45.124;36.712;2022-07-23T07:03:00;24.78;65.80
64880;HTU21D;51374;45.124;36.712;2022-07-23T07:05:26;24.75;65.56
64880;HTU21D;51374;45.124;36.712;2022-07-23T07:07:55;24.72;65.32
64880;HTU21D;51374;45.124;36.712;2022-07-23T07:10:21;24.73;65.13
64880;HTU21D;51374;45.124;36.712;2022-07-23T07:12:47;24.75;64.60
64880;HTU21D;51374;45.124;36.712;2022-07-23T07:15:13;24.79;65.24
64880;HTU21D;51374;45.124;36.712;2022-07-23T07:17:39;24.88;65.14
64880;HTU21D;51374;45.124;36.712;2022-07-23T07:20:06;24.89;64.44
64880;HTU21D;51374;45.124;36.712;2022-07-23T07:22:32;24.86;64.20
64880;HTU21D;51374;45.124;36.712;2022-07-23T07:24:58;24.88;64.52
64880;HTU21D;51374;45.124;36.712;2022-07-23T07:27:24;24.92;63.66
64880;HTU21D;51374;45.124;36.712;2022-07-23T07:29:50;24.91;63.48
64880;HTU21D;51374;45.124;36.712;2022-07-23T07:32:16;24.92;63.50
64880;HTU21D;51374;45.124;36.712;2022-07-23T07:34:42;24.92;63.61
64880;HTU21D;51374;45.124;36.712;2022-07-23T07:37:10;24.97;63.34
64880;HTU21D;51374;45.124;36.712;2022-07-23T07:39:36;25.02;63.57
64880;HTU21D;51374;45.124;36.712;2022-07-23T07:42:02;25.06;63.63
64880;HTU21D;51374;45.124;36.712;2022-07-23T07:44:28;25.18;63.29
64880;HTU21D;51374;45.124;36.712;2022-07-23T07:46:54;25.16;62.91
64880;HTU21D;51374;45.124;36.712;2022-07-23T07:49:20;25.16;62.72
64880;HTU21D;51374;45.124;36.712;2022-07-23T07:51:47;25.18;62.53
64880;HTU21D;51374;45.124;36.712;2022-07-23T07:54:13;25.19;62.44
64880;HTU21D;51374;45.124;36.712;2022-07-23T07:56:39;25.16;61.86
64880;HTU21D;51374;45.124;36.712;2022-07-23T07:59:05;25.15;62.20
64880;HTU21D;51374;45.124;36.712;2022-07-23T08:01:31;25.19;62.02
64880;HTU21D;51374;45.124;36.712;2022-07-23T08:03:57;25.29;62.39
64880;HTU21D;51374;45.124;36.712;2022-07-23T08:06:23;25.47;62.37
64880;HTU21D;51374;45.124;36.712;2022-07-23T08:08:49;25.63;62.21
64880;HTU21D;51374;45.124;36.712;2022-07-23T08:11:16;25.62;61.60
64880;HTU21D;51374;45.124;36.712;2022-07-23T08:13:42;25.61;61.82
64880;HTU21D;51374;45.124;36.712;2022-07-23T08:16:11;25.66;61.95
64880;HTU21D;51374;45.124;36.712;2022-07-23T08:18:37;25.76;61.93
64880;HTU21D;51374;45.124;36.712;2022-07-23T08:21:03;25.87;61.99
64880;HTU21D;51374;45.124;36.712;2022-07-23T08:23:31;25.94;61.91
64880;HTU21D;51374;45.124;36.712;2022-07-23T08:25:57;25.95;61.57
64880;HTU21D;51374;45.124;36.712;2022-07-23T08:28:26;25.86;61.50
64880;HTU21D;51374;45.124;36.712;2022-07-23T08:30:52;25.63;61.69
64880;HTU21D;51374;45.124;36.712;2022-07-23T08:33:18;25.48;61.94
64880;HTU21D;51374;45.124;36.712;2022-07-23T08:35:47;25.49;62.24
64880;HTU21D;51374;45.124;36.712;2022-07-23T08:38:15;25.58;62.11
64880;HTU21D;51374;45.124;36.712;2022-07-23T08:40:49;25.49;61.94
64880;HTU21D;51374;45.124;36.712;2022-07-23T08:43:21;25.43;62.22
64880;HTU21D;51374;45.124;36.712;2022-07-23T08:45:51;25.46;62.21
64880;HTU21D;51374;45.124;36.712;2022-07-23T08:48:20;25.36;62.32
64880;HTU21D;51374;45.124;36.712;2022-07-23T08:50:53;25.45;62.40
64880;HTU21D;51374;45.124;36.712;2022-07-23T08:53:24;25.58;62.18
64880;HTU21D;51374;45.124;36.712;2022-07-23T08:55:53;25.56;61.99
64880;HTU21D;51374;45.124;36.712;2022-07-23T08:58:19;25.48;62.15
64880;HTU21D;51374;45.124;36.712;2022-07-23T09:00:46;25.52;62.06
64880;HTU21D;51374;45.124;36.712;2022-07-23T09:03:18;25.54;62.02
64880;HTU21D;51374;45.124;36.712;2022-07-23T09:05:44;25.63;62.08
64880;HTU21D;51374;45.124;36.712;2022-07-23T09:08:12;25.74;61.74
64880;HTU21D;51374;45.124;36.712;2022-07-23T09:10:55;25.83;61.50
64880;HTU21D;51374;45.124;36.712;2022-07-23T09:15:51;25.81;61.02
64880;HTU21D;51374;45.124;36.712;2022-07-23T09:18:17;25.88;61.09
64880;HTU21D;51374;45.124;36.712;2022-07-23T09:20:44;25.94;61.13
64880;HTU21D;51374;45.124;36.712;2022-07-23T09:23:10;25.99;61.15
64880;HTU21D;51374;45.124;36.712;2022-07-23T09:25:36;26.11;61.26
64880;HTU21D;51374;45.124;36.712;2022-07-23T09:28:02;26.23;60.89
64880;HTU21D;51374;45.124;36.712;2022-07-23T09:30:32;26.19;59.71
64880;HTU21D;51374;45.124;36.712;2022-07-23T09:33:11;26.17;60.23
64880;HTU21D;51374;45.124;36.712;2022-07-23T09:35:54;26.21;60.18
64880;HTU21D;51374;45.124;36.712;2022-07-23T09:38:24;26.27;60.09
64880;HTU21D;51374;45.124;36.712;2022-07-23T09:41:10;26.27;60.02
64880;HTU21D;51374;45.124;36.712;2022-07-23T09:43:36;26.20;59.09
64880;HTU21D;51374;45.124;36.712;2022-07-23T09:46:19;26.09;57.96
64880;HTU21D;51374;45.124;36.712;2022-07-23T09:48:47;26.01;58.74
64880;HTU21D;51374;45.124;36.712;2022-07-23T09:51:14;26.04;58.93
64880;HTU21D;51374;45.124;36.712;2022-07-23T09:53:50;26.10;58.98
64880;HTU21D;51374;45.124;36.712;2022-07-23T09:56:17;26.19;58.77
64880;HTU21D;51374;45.124;36.712;2022-07-23T09:58:46;26.23;58.58
64880;HTU21D;51374;45.124;36.712;2022-07-23T10:01:16;26.30;58.44
64880;HTU21D;51374;45.124;36.712;2022-07-23T10:03:43;26.38;58.34
64880;HTU21D;51374;45.124;36.712;2022-07-23T10:06:40;26.47;58.32
64880;HTU21D;51374;45.124;36.712;2022-07-23T10:09:30;26.48;57.71
64880;HTU21D;51374;45.124;36.712;2022-07-23T10:12:23;26.47;57.77
64880;HTU21D;51374;45.124;36.712;2022-07-23T10:15:00;26.37;57.32
64880;HTU21D;51374;45.124;36.712;2022-07-23T10:17:29;26.31;57.85
64880;HTU21D;51374;45.124;36.712;2022-07-23T10:19:55;26.30;57.45
64880;HTU21D;51374;45.124;36.712;2022-07-23T10:22:24;26.37;57.52
64880;HTU21D;51374;45.124;36.712;2022-07-23T10:25:20;26.45;56.53
64880;HTU21D;51374;45.124;36.712;2022-07-23T10:30:51;26.39;55.65
64880;HTU21D;51374;45.124;36.712;2022-07-23T10:35:48;26.52;56.16
64880;HTU21D;51374;45.124;36.712;2022-07-23T10:38:24;26.54;56.29
64880;HTU21D;51374;45.124;36.712;2022-07-23T10:41:03;26.62;56.19
64880;HTU21D;51374;45.124;36.712;2022-07-23T10:43:31;26.72;56.22
64880;HTU21D;51374;45.124;36.712;2022-07-23T10:46:21;26.79;56.03
64880;HTU21D;51374;45.124;36.712;2022-07-23T10:52:26;26.81;55.55
64880;HTU21D;51374;45.124;36.712;2022-07-23T10:57:48;26.78;55.25
64880;HTU21D;51374;45.124;36.712;2022-07-23T11:00:18;26.85;55.63
64880;HTU21D;51374;45.124;36.712;2022-07-23T11:02:47;26.94;55.45
64880;HTU21D;51374;45.124;36.712;2022-07-23T11:05:16;26.95;54.52
64880;HTU21D;51374;45.124;36.712;2022-07-23T11:10:35;26.94;54.61
64880;HTU21D;51374;45.124;36.712;2022-07-23T11:13:37;27.06;55.34
64880;HTU21D;51374;45.124;36.712;2022-07-23T11:16:23;27.22;55.13
64880;HTU21D;51374;45.124;36.712;2022-07-23T11:18:55;27.21;54.26
64880;HTU21D;51374;45.124;36.712;2022-07-23T11:24:04;27.14;53.65
64880;HTU21D;51374;45.124;36.712;2022-07-23T11:26:46;27.13;54.23
64880;HTU21D;51374;45.124;36.712;2022-07-23T11:31:58;27.09;54.17
64880;HTU21D;51374;45.124;36.712;2022-07-23T11:34:41;27.13;54.46
64880;HTU21D;51374;45.124;36.712;2022-07-23T11:37:09;27.20;53.91
64880;HTU21D;51374;45.124;36.712;2022-07-23T11:39:36;27.22;54.08
64880;HTU21D;51374;45.124;36.712;2022-07-23T11:42:03;27.28;54.24
64880;HTU21D;51374;45.124;36.712;2022-07-23T11:44:34;27.35;54.07
64880;HTU21D;51374;45.124;36.712;2022-07-23T11:47:05;27.39;54.13
64880;HTU21D;51374;45.124;36.712;2022-07-23T11:49:32;27.45;54.17
64880;HTU21D;51374;45.124;36.712;2022-07-23T11:52:12;27.58;54.19
64880;HTU21D;51374;45.124;36.712;2022-07-23T11:55:05;27.70;54.12
64880;HTU21D;51374;45.124;36.712;2022-07-23T11:57:33;27.66;53.92
64880;HTU21D;51374;45.124;36.712;2022-07-23T12:02:41;27.57;54.50
64880;HTU21D;51374;45.124;36.712;2022-07-23T12:05:08;27.53;54.48
64880;HTU21D;51374;45.124;36.712;2022-07-23T12:07:41;27.60;54.63
64880;HTU21D;51374;45.124;36.712;2022-07-23T12:13:00;27.61;53.95
64880;HTU21D;51374;45.124;36.712;2022-07-23T12:15:30;27.63;54.41
64880;HTU21D;51374;45.124;36.712;2022-07-23T12:17:59;27.61;53.87
64880;HTU21D;51374;45.124;36.712;2022-07-23T12:20:28;27.50;54.29
64880;HTU21D;51374;45.124;36.712;2022-07-23T12:22:57;27.29;54.21
64880;HTU21D;51374;45.124;36.712;2022-07-23T12:25:28;27.12;54.75
64880;HTU21D;51374;45.124;36.712;2022-07-23T12:28:12;26.99;54.33
64880;HTU21D;51374;45.124;36.712;2022-07-23T12:33:06;26.92;55.30
64880;HTU21D;51374;45.124;36.712;2022-07-23T12:35:42;27.05;55.29
64880;HTU21D;51374;45.124;36.712;2022-07-23T12:38:20;27.10;55.22
64880;HTU21D;51374;45.124;36.712;2022-07-23T12:43:23;27.28;54.79
64880;HTU21D;51374;45.124;36.712;2022-07-23T12:45:55;27.17;54.19
64880;HTU21D;51374;45.124;36.712;2022-07-23T12:48:29;27.02;54.63
64880;HTU21D;51374;45.124;36.712;2022-07-23T12:50:57;27.01;54.16
64880;HTU21D;51374;45.124;36.712;2022-07-23T12:56:11;27.23;54.17
64880;HTU21D;51374;45.124;36.712;2022-07-23T12:58:48;27.31;53.51
64880;HTU21D;51374;45.124;36.712;2022-07-23T13:03:58;27.32;53.83
64880;HTU21D;51374;45.124;36.712;2022-07-23T13:06:26;27.39;53.66
64880;HTU21D;51374;45.124;36.712;2022-07-23T13:08:53;27.49;53.56
64880;HTU21D;51374;45.124;36.712;2022-07-23T13:11:19;27.52;53.62
64880;HTU21D;51374;45.124;36.712;2022-07-23T13:13:45;27.55;53.54
64880;HTU21D;51374;45.124;36.712;2022-07-23T13:16:10;27.59;53.74
64880;HTU21D;51374;45.124;36.712;2022-07-23T13:18:36;27.61;52.89
64880;HTU21D;51374;45.124;36.712;2022-07-23T13:21:03;27.58;53.34
64880;HTU21D;51374;45.124;36.712;2022-07-23T13:23:29;27.64;53.39
64880;HTU21D;51374;45.124;36.712;2022-07-23T13:25:55;27.70;53.51
64880;HTU21D;51374;45.124;36.712;2022-07-23T13:28:22;27.70;53.30
64880;HTU21D;51374;45.124;36.712;2022-07-23T13:30:49;27.69;52.65
64880;HTU21D;51374;45.124;36.712;2022-07-23T13:33:21;27.65;52.91
64880;HTU21D;51374;45.124;36.712;2022-07-23T13:35:49;27.69;52.82
64880;HTU21D;51374;45.124;36.712;2022-07-23T13:38:16;27.72;53.01
64880;HTU21D;51374;45.124;36.712;2022-07-23T13:40:44;27.73;52.81
64880;HTU21D;51374;45.124;36.712;2022-07-23T13:43:13;27.74;53.08
64880;HTU21D;51374;45.124;36.712;2022-07-23T13:45:41;27.79;53.06
64880;HTU21D;51374;45.124;36.712;2022-07-23T13:48:11;27.84;52.31
64880;HTU21D;51374;45.124;36.712;2022-07-23T13:50:38;27.70;52.46
64880;HTU21D;51374;45.124;36.712;2022-07-23T13:53:06;27.66;52.69
64880;HTU21D;51374;45.124;36.712;2022-07-23T13:55:33;27.67;52.79
64880;HTU21D;51374;45.124;36.712;2022-07-23T13:58:00;27.66;52.53
64880;HTU21D;51374;45.124;36.712;2022-07-23T14:00:27;27.65;52.65
64880;HTU21D;51374;45.124;36.712;2022-07-23T14:02:53;27.69;52.67
64880;HTU21D;51374;45.124;36.712;2022-07-23T14:05:20;27.69;52.08
64880;HTU21D;51374;45.124;36.712;2022-07-23T14:07:46;27.61;52.36
64880;HTU21D;51374;45.124;36.712;2022-07-23T14:10:16;27.60;52.46
64880;HTU21D;51374;45.124;36.712;2022-07-23T14:12:43;27.58;52.49
64880;HTU21D;51374;45.124;36.712;2022-07-23T14:15:10;27.57;52.22
64880;HTU21D;51374;45.124;36.712;2022-07-23T14:17:41;27.55;52.17
64880;HTU21D;51374;45.124;36.712;2022-07-23T14:20:09;27.51;52.30
64880;HTU21D;51374;45.124;36.712;2022-07-23T14:22:35;27.43;51.98
64880;HTU21D;51374;45.124;36.712;2022-07-23T14:25:01;27.39;52.30
64880;HTU21D;51374;45.124;36.712;2022-07-23T14:27:28;27.38;52.27
64880;HTU21D;51374;45.124;36.712;2022-07-23T14:29:55;27.39;52.40
64880;HTU21D;51374;45.124;36.712;2022-07-23T14:32:22;27.43;52.55
64880;HTU21D;51374;45.124;36.712;2022-07-23T14:34:48;27.47;52.50
64880;HTU21D;51374;45.124;36.712;2022-07-23T14:37:14;27.44;52.48
64880;HTU21D;51374;45.124;36.712;2022-07-23T14:39:42;27.44;52.59
64880;HTU21D;51374;45.124;36.712;2022-07-23T14:42:08;27.44;52.65
64880;HTU21D;51374;45.124;36.712;2022-07-23T14:44:35;27.45;52.67
64880;HTU21D;51374;45.124;36.712;2022-07-23T14:47:02;27.44;52.40
64880;HTU21D;51374;45.124;36.712;2022-07-23T14:49:30;27.37;52.61
64880;HTU21D;51374;45.124;36.712;2022-07-23T14:51:57;27.29;52.63
64880;HTU21D;51374;45.124;36.712;2022-07-23T14:54:24;27.26;52.81
64880;HTU21D;51374;45.124;36.712;2022-07-23T14:56:55;27.23;52.72
64880;HTU21D;51374;45.124;36.712;2022-07-23T14:59:22;27.20;52.75
64880;HTU21D;51374;45.124;36.712;2022-07-23T23:18:09;21.34;68.29
64880;HTU21D;51374;45.124;36.712;2022-07-23T23:20:35;21.33;68.38
64880;HTU21D;51374;45.124;36.712;2022-07-23T23:23:01;21.33;68.49
64880;HTU21D;51374;45.124;36.712;2022-07-23T23:25:27;21.31;68.52
64880;HTU21D;51374;45.124;36.712;2022-07-23T23:27:53;21.30;68.61
64880;HTU21D;51374;45.124;36.712;2022-07-23T23:30:19;21.28;68.71
64880;HTU21D;51374;45.124;36.712;2022-07-23T23:32:45;21.25;68.83
64880;HTU21D;51374;45.124;36.712;2022-07-23T23:35:11;21.23;68.94
64880;HTU21D;51374;45.124;36.712;2022-07-23T23:37:37;21.19;69.09
64880;HTU21D;51374;45.124;36.712;2022-07-23T23:40:03;21.17;69.23
64880;HTU21D;51374;45.124;36.712;2022-07-23T23:42:30;21.15;69.37
64880;HTU21D;51374;45.124;36.712;2022-07-23T23:44:56;21.13;69.44
64880;HTU21D;51374;45.124;36.712;2022-07-23T23:47:22;21.13;69.52
64880;HTU21D;51374;45.124;36.712;2022-07-23T23:49:48;21.11;69.56
64880;HTU21D;51374;45.124;36.712;2022-07-23T23:52:14;21.13;69.60
64880;HTU21D;51374;45.124;36.712;2022-07-23T23:54:40;21.15;69.64
64880;HTU21D;51374;45.124;36.712;2022-07-23T23:57:07;21.15;69.64
64880;HTU21D;51374;45.124;36.712;2022-07-23T23:59:33;21.14;69.72
